Time;durP1;ratioP1;P1;durP2;ratioP2;P2;SDS_P1;SDS_P2;PMS_P1;PMS_P2;Temp;Humidity;BMP_temperature;BMP_pressure;BME280_temperature;BME280_humidity;BME280_pressure;Samples;Min_cycle;Max_cycle;Signal;HPM_P1;HPM_P2
2024/04/01 00:01:52;;;;;;;0.60;0.50;;;20.00;1.00;;;;;;2611014;47;20793;-60
2024/04/01 00:04:18;;;;;;;0.70;0.50;;;20.00;1.00;;;;;;2612028;54;20166;-60
2024/04/01 00:06:45;;;;;;;0.70;0.50;;;20.00;1.00;;;;;;2611278;47;20166;-59
2024/04/01 00:09:11;;;;;;;0.63;0.50;;;20.00;1.00;;;;;;2611668;51;20174;-59
2024/04/01 00:11:36;;;;;;;0.67;0.50;;;20.00;1.00;;;;;;2612719;31;20885;-60
2024/04/01 00:14:02;;;;;;;0.70;0.57;;;20.00;1.00;;;;;;2612405;47;20162;-61
2024/04/01 00:16:28;;;;;;;0.67;0.50;;;20.00;1.00;;;;;;2611975;54;20163;-61
2024/04/01 00:18:53;;;;;;;0.70;0.50;;;20.00;1.00;;;;;;2612608;39;20568;-60
2024/04/01 00:21:19;;;;;;;0.70;0.60;;;20.00;1.00;;;;;;2611979;47;20175;-61
2024/04/01 00:23:48;;;;;;;0.70;0.60;;;20.00;1.00;;;;;;2612446;47;20162;-59
2024/04/01 00:26:16;;;;;;;0.70;0.60;;;20.00;1.00;;;;;;2612162;54;20184;-60
2024/04/01 00:28:42;;;;;;;0.70;0.50;;;20.00;1.00;;;;;;2612104;54;20435;-60
2024/04/01 00:31:08;;;;;;;0.70;0.60;;;20.00;1.00;;;;;;2612653;54;20464;-60
2024/04/01 00:33:34;;;;;;;0.67;0.50;;;20.00;1.00;;;;;;2611269;54;20171;-60
2024/04/01 00:35:59;;;;;;;0.70;0.50;;;20.00;1.00;;;;;;2612292;54;20438;-61
2024/04/01 00:38:25;;;;;;;0.60;0.50;;;20.00;1.00;;;;;;2611946;54;20170;-62
2024/04/01 00:40:51;;;;;;;0.60;0.50;;;20.00;1.00;;;;;;2611676;54;20234;-62
2024/04/01 00:43:16;;;;;;;0.70;0.50;;;20.00;1.00;;;;;;2611150;54;20254;-62
2024/04/01 00:45:48;;;;;;;0.70;0.60;;;20.00;1.00;;;;;;2612252;39;20903;-59
2024/04/01 00:48:15;;;;;;;0.60;0.50;;;20.00;1.00;;;;;;2611966;39;20739;-59
2024/04/01 00:50:47;;;;;;;0.60;0.50;;;20.00;1.00;;;;;;2611199;47;20462;-58
2024/04/01 00:53:13;;;;;;;0.70;0.60;;;20.00;1.00;;;;;;2611675;54;20483;-59
2024/04/01 00:55:42;;;;;;;0.60;0.50;;;20.00;1.00;;;;;;2611293;54;21216;-60
2024/04/01 00:58:09;;;;;;;0.70;0.53;;;20.00;1.00;;;;;;2611140;47;20427;-59
2024/04/01 01:00:35;;;;;;;0.70;0.50;;;20.00;1.00;;;;;;2611140;39;21180;-61
2024/04/01 01:03:01;;;;;;;0.70;0.50;;;20.00;1.00;;;;;;2610379;54;20419;-60
2024/04/01 01:05:28;;;;;;;0.70;0.50;;;20.00;1.00;;;;;;2611167;54;20442;-60
2024/04/01 01:07:54;;;;;;;0.83;0.83;;;20.00;1.00;;;;;;2610116;47;20415;-60
2024/04/01 01:10:21;;;;;;;0.70;0.50;;;20.00;1.00;;;;;;2611689;54;20404;-60
2024/04/01 01:12:47;;;;;;;0.70;0.50;;;20.00;1.00;;;;;;2611653;54;20447;-60
2024/04/01 01:15:12;;;;;;;0.60;0.50;;;20.00;1.00;;;;;;2612277;54;20534;-60
2024/04/01 01:17:40;;;;;;;0.70;0.50;;;20.00;1.00;;;;;;2612369;39;20573;-60
2024/04/01 01:20:12;;;;;;;1.00;1.00;;;20.00;1.00;;;;;;2612076;47;20171;-60
2024/04/01 01:22:41;;;;;;;0.67;0.50;;;19.90;1.00;;;;;;2612209;47;20956;-60
2024/04/01 01:25:08;;;;;;;0.70;0.50;;;19.90;1.00;;;;;;2612502;47;20431;-61
2024/04/01 01:27:41;;;;;;;0.63;0.50;;;19.90;1.00;;;;;;2612396;54;20973;-60
2024/04/01 01:30:15;;;;;;;0.70;0.60;;;20.00;1.00;;;;;;2611970;47;20515;-60
2024/04/01 01:32:52;;;;;;;0.60;0.50;;;19.90;1.00;;;;;;2611592;39;20679;-60
2024/04/01 01:35:22;;;;;;;0.63;0.50;;;19.90;1.00;;;;;;2612469;39;20748;-60
2024/04/01 01:37:51;;;;;;;0.70;0.50;;;19.90;1.00;;;;;;2612130;47;20404;-59
2024/04/01 01:40:18;;;;;;;0.70;0.60;;;19.90;1.00;;;;;;2612484;39;20815;-59
2024/04/01 01:42:43;;;;;;;0.60;0.50;;;20.00;1.00;;;;;;2611954;54;20431;-60
2024/04/01 01:45:09;;;;;;;0.60;0.40;;;19.90;1.00;;;;;;2612032;54;20462;-61
2024/04/01 01:47:36;;;;;;;0.70;0.60;;;19.90;1.00;;;;;;2612108;54;20399;-61
2024/04/01 01:50:03;;;;;;;0.70;0.50;;;19.90;1.00;;;;;;2611532;54;20411;-61
2024/04/01 01:52:29;;;;;;;0.67;0.60;;;19.90;1.00;;;;;;2612099;47;20558;-61
2024/04/01 01:54:56;;;;;;;0.60;0.50;;;19.90;1.00;;;;;;2612910;39;20815;-62
2024/04/01 01:57:22;;;;;;;0.70;0.50;;;19.90;1.00;;;;;;2610800;47;20268;-64
2024/04/01 01:59:49;;;;;;;0.67;0.50;;;19.90;1.00;;;;;;2611706;47;20454;-63
2024/04/01 02:02:16;;;;;;;0.60;0.50;;;20.00;1.00;;;;;;2610808;54;20539;-62
2024/04/01 02:04:43;;;;;;;0.70;0.50;;;19.90;1.00;;;;;;2611125;54;20419;-65
2024/04/01 02:07:09;;;;;;;0.60;0.50;;;19.90;1.00;;;;;;2611655;47;20430;-66
2024/04/01 02:09:35;;;;;;;0.70;0.50;;;20.00;1.00;;;;;;2612056;54;20986;-66
2024/04/01 02:12:02;;;;;;;0.60;0.50;;;19.90;1.00;;;;;;2611897;47;20447;-66
2024/04/01 02:14:28;;;;;;;0.67;0.57;;;19.90;1.00;;;;;;2611886;47;20443;-65
2024/04/01 02:16:53;;;;;;;0.70;0.50;;;19.90;1.00;;;;;;2612297;54;20511;-66
2024/04/01 02:19:19;;;;;;;0.70;0.50;;;20.00;1.00;;;;;;2611859;54;20408;-65
2024/04/01 02:21:48;;;;;;;0.60;0.50;;;19.90;1.00;;;;;;2611869;47;20443;-66
2024/04/01 02:24:17;;;;;;;0.63;0.50;;;19.90;1.00;;;;;;2611393;48;20428;-65
2024/04/01 02:26:49;;;;;;;0.70;0.50;;;20.00;1.00;;;;;;2612077;54;20427;-65
2024/04/01 02:29:15;;;;;;;0.60;0.60;;;19.90;1.00;;;;;;2611752;54;20439;-65
2024/04/01 02:31:41;;;;;;;0.60;0.50;;;19.90;1.00;;;;;;2611912;54;20434;-66
2024/04/01 02:34:10;;;;;;;0.70;0.50;;;20.00;1.00;;;;;;2611834;54;20424;-66
2024/04/01 02:36:36;;;;;;;0.70;0.50;;;19.90;1.00;;;;;;2612098;39;20677;-66
2024/04/01 02:39:03;;;;;;;0.70;0.50;;;19.90;1.00;;;;;;2612694;39;20818;-66
2024/04/01 02:41:29;;;;;;;0.67;0.50;;;20.00;1.00;;;;;;2610977;54;20451;-65
2024/04/01 02:43:54;;;;;;;0.60;0.50;;;19.90;1.00;;;;;;2612118;54;20538;-65
2024/04/01 02:46:20;;;;;;;0.70;0.60;;;19.90;1.00;;;;;;2612346;39;20506;-66
2024/04/01 02:48:46;;;;;;;0.60;0.50;;;19.90;1.00;;;;;;2611503;54;20169;-67
2024/04/01 02:51:11;;;;;;;0.60;0.50;;;20.00;1.00;;;;;;2612120;54;20177;-64
2024/04/01 02:53:37;;;;;;;0.70;0.60;;;19.90;1.00;;;;;;2611363;54;20776;-66
2024/04/01 02:56:03;;;;;;;0.70;0.50;;;19.90;1.00;;;;;;2611872;54;20185;-67
2024/04/01 02:58:31;;;;;;;0.70;0.50;;;19.90;1.00;;;;;;2611860;54;20163;-66
2024/04/01 03:01:06;;;;;;;0.60;0.50;;;19.90;1.00;;;;;;2611354;54;20170;-66
2024/04/01 03:03:32;;;;;;;0.70;0.60;;;19.90;1.00;;;;;;2610535;47;20415;-67
2024/04/01 03:05:58;;;;;;;0.70;0.60;;;19.90;1.00;;;;;;2610996;54;20431;-60
2024/04/01 03:08:23;;;;;;;0.60;0.50;;;19.90;1.00;;;;;;2611589;54;20189;-61
2024/04/01 03:10:56;;;;;;;0.70;0.50;;;19.90;1.00;;;;;;2611399;54;20416;-60
2024/04/01 03:13:22;;;;;;;0.70;0.50;;;19.90;1.00;;;;;;2612068;54;20792;-61
2024/04/01 03:15:47;;;;;;;0.60;0.50;;;19.90;1.00;;;;;;2611816;54;20816;-66
2024/04/01 03:18:13;;;;;;;0.70;0.50;;;19.90;1.00;;;;;;2611897;47;20733;-65
2024/04/01 03:20:40;;;;;;;0.70;0.60;;;19.90;1.00;;;;;;2611896;51;20166;-65
2024/04/01 03:23:06;;;;;;;0.70;0.60;;;19.90;1.00;;;;;;2611505;54;20166;-65
2024/04/01 03:25:32;;;;;;;0.60;0.50;;;19.90;1.00;;;;;;2611974;47;20458;-66
2024/04/01 03:27:58;;;;;;;0.70;0.50;;;19.90;1.00;;;;;;2611825;47;20424;-66
2024/04/01 03:30:24;;;;;;;0.63;0.50;;;19.90;1.00;;;;;;2611566;47;20510;-65
2024/04/01 03:32:50;;;;;;;0.60;0.50;;;19.90;1.00;;;;;;2611278;54;20273;-64
2024/04/01 03:35:16;;;;;;;0.60;0.50;;;19.90;1.00;;;;;;2612013;54;20165;-66
2024/04/01 03:37:41;;;;;;;0.60;0.50;;;19.90;1.00;;;;;;2612976;39;20675;-67
2024/04/01 03:40:11;;;;;;;0.60;0.50;;;19.90;1.00;;;;;;2611421;47;20419;-65
2024/04/01 03:42:36;;;;;;;0.60;0.50;;;19.90;1.00;;;;;;2611889;47;20178;-66
2024/04/01 03:45:06;;;;;;;0.70;0.60;;;19.90;1.00;;;;;;2611603;54;20428;-67
2024/04/01 03:47:34;;;;;;;0.70;0.50;;;19.90;1.00;;;;;;2611778;54;20151;-66
2024/04/01 03:50:02;;;;;;;0.70;0.60;;;19.90;1.00;;;;;;2610716;47;20447;-66
2024/04/01 03:52:28;;;;;;;0.60;0.50;;;19.90;1.00;;;;;;2611298;54;21020;-66
2024/04/01 03:54:53;;;;;;;0.60;0.50;;;19.90;1.00;;;;;;2611546;54;20519;-66
2024/04/01 03:57:19;;;;;;;0.70;0.50;;;19.90;1.00;;;;;;2611090;54;20286;-66
2024/04/01 03:59:45;;;;;;;0.70;0.60;;;19.90;1.00;;;;;;2611994;39;20680;-65
2024/04/01 04:02:11;;;;;;;0.73;0.70;;;19.90;1.00;;;;;;2610878;54;20162;-66
2024/04/01 04:04:36;;;;;;;0.70;0.60;;;19.90;1.00;;;;;;2611703;47;20290;-62
2024/04/01 04:07:02;;;;;;;0.70;0.60;;;19.90;1.00;;;;;;2611675;54;20174;-63
2024/04/01 04:09:28;;;;;;;0.60;0.60;;;19.90;1.00;;;;;;2611981;54;20183;-62
2024/04/01 04:11:54;;;;;;;0.70;0.70;;;19.90;1.00;;;;;;2611571;54;20165;-62
2024/04/01 04:14:25;;;;;;;0.70;0.60;;;19.90;1.00;;;;;;2611197;47;20415;-63
2024/04/01 04:16:52;;;;;;;0.70;0.60;;;19.90;1.00;;;;;;2611176;54;20427;-61
2024/04/01 04:19:19;;;;;;;0.70;0.60;;;19.90;1.00;;;;;;2611953;54;20412;-60
2024/04/01 04:21:45;;;;;;;0.60;0.50;;;19.90;1.00;;;;;;2610697;47;20454;-61
2024/04/01 04:24:11;;;;;;;0.70;0.60;;;19.90;1.00;;;;;;2611378;52;20423;-60
2024/04/01 04:26:38;;;;;;;0.70;0.50;;;19.90;1.00;;;;;;2611455;54;20452;-66
2024/04/01 04:29:04;;;;;;;0.60;0.50;;;19.90;1.00;;;;;;2611698;54;20881;-65
2024/04/01 04:31:31;;;;;;;0.63;0.50;;;19.90;1.00;;;;;;2610888;39;20802;-65
2024/04/01 04:33:57;;;;;;;0.70;0.60;;;19.90;1.00;;;;;;2610883;54;20166;-66
2024/04/01 04:36:23;;;;;;;0.70;0.60;;;19.90;1.00;;;;;;2611757;54;20475;-65
2024/04/01 04:38:48;;;;;;;0.70;0.50;;;19.90;1.00;;;;;;2611888;54;20920;-65
2024/04/01 04:41:18;;;;;;;0.70;0.50;;;19.90;1.00;;;;;;2611675;39;20881;-66
2024/04/01 04:43:44;;;;;;;0.70;0.50;;;19.90;1.00;;;;;;2611666;39;20728;-66
2024/04/01 04:46:13;;;;;;;0.60;0.50;;;19.90;1.00;;;;;;2611108;39;20730;-66
2024/04/01 04:48:43;;;;;;;0.60;0.50;;;19.90;1.00;;;;;;2612340;39;20792;-66
2024/04/01 04:51:09;;;;;;;0.70;0.70;;;19.90;1.00;;;;;;2612712;47;20450;-66
2024/04/01 04:53:36;;;;;;;0.70;0.60;;;19.90;1.00;;;;;;2612525;54;21358;-65
2024/04/01 04:56:04;;;;;;;0.67;0.50;;;19.90;1.00;;;;;;2611415;54;20431;-65
2024/04/01 04:58:30;;;;;;;0.70;0.57;;;19.90;1.00;;;;;;2612190;51;20435;-65
2024/04/01 05:00:56;;;;;;;0.70;0.60;;;19.90;1.00;;;;;;2611184;47;20431;-66
2024/04/01 05:03:22;;;;;;;0.70;0.60;;;19.90;1.00;;;;;;2609879;47;20546;-64
2024/04/01 05:05:47;;;;;;;0.70;0.60;;;19.90;1.00;;;;;;2610914;54;20166;-65
2024/04/01 05:08:13;;;;;;;0.70;0.60;;;19.80;1.00;;;;;;2611297;54;20187;-65
2024/04/01 05:10:39;;;;;;;0.70;0.60;;;19.90;1.00;;;;;;2612899;54;20170;-65
2024/04/01 05:13:05;;;;;;;0.70;0.50;;;19.80;1.00;;;;;;2611808;54;20169;-66
2024/04/01 05:15:31;;;;;;;0.60;0.60;;;19.90;1.00;;;;;;2611800;47;20178;-63
2024/04/01 05:17:56;;;;;;;0.70;0.50;;;19.90;1.00;;;;;;2611356;54;20423;-63
2024/04/01 05:20:23;;;;;;;0.63;0.60;;;19.90;1.00;;;;;;2612392;54;20159;-62
2024/04/01 05:22:49;;;;;;;0.70;0.60;;;19.80;1.00;;;;;;2612329;54;20155;-62
2024/04/01 05:25:15;;;;;;;0.60;0.50;;;19.80;1.00;;;;;;2612062;54;20542;-59
2024/04/01 05:27:40;;;;;;;0.70;0.60;;;19.80;1.00;;;;;;2612602;54;20423;-60
2024/04/01 05:30:10;;;;;;;0.70;0.60;;;19.90;1.00;;;;;;2612248;49;20246;-59
2024/04/01 05:32:38;;;;;;;0.70;0.60;;;19.90;1.00;;;;;;2611771;54;20707;-59
2024/04/01 05:35:05;;;;;;;0.70;0.50;;;19.90;1.00;;;;;;2611988;54;20507;-63
2024/04/01 05:37:32;;;;;;;0.70;0.70;;;19.80;1.00;;;;;;2611937;54;21024;-62
2024/04/01 05:39:58;;;;;;;0.70;0.60;;;19.90;1.00;;;;;;2611310;54;20440;-62
2024/04/01 05:42:23;;;;;;;0.70;0.60;;;19.80;1.00;;;;;;2611739;47;20423;-62
2024/04/01 05:44:49;;;;;;;0.70;0.63;;;19.80;1.00;;;;;;2611698;54;20150;-62
2024/04/01 05:47:15;;;;;;;0.63;0.60;;;19.80;1.00;;;;;;2611170;54;22540;-62
2024/04/01 05:49:41;;;;;;;0.60;0.50;;;19.80;1.00;;;;;;2611559;54;20248;-62
2024/04/01 05:52:07;;;;;;;0.70;0.60;;;19.80;1.00;;;;;;2611647;47;20249;-62
2024/04/01 05:54:33;;;;;;;0.70;0.60;;;19.80;1.00;;;;;;2611899;39;20879;-61
2024/04/01 05:56:59;;;;;;;0.70;0.60;;;19.80;1.00;;;;;;2612095;54;20200;-61
2024/04/01 05:59:25;;;;;;;0.63;0.60;;;19.80;1.00;;;;;;2612006;54;20953;-62
2024/04/01 06:01:55;;;;;;;0.70;0.60;;;19.80;1.00;;;;;;2611762;54;20430;-61
2024/04/01 06:04:22;;;;;;;0.70;0.60;;;19.80;1.00;;;;;;2611321;47;20439;-61
2024/04/01 06:06:47;;;;;;;0.70;0.60;;;19.80;1.00;;;;;;2611923;54;20423;-62
2024/04/01 06:09:14;;;;;;;0.70;0.70;;;19.80;1.00;;;;;;2611820;54;20423;-62
2024/04/01 06:11:40;;;;;;;0.70;0.60;;;19.80;1.00;;;;;;2612893;39;20648;-63
2024/04/01 06:14:06;;;;;;;0.70;0.50;;;19.80;1.00;;;;;;2612148;54;21046;-62
2024/04/01 06:16:32;;;;;;;0.70;0.53;;;19.80;1.00;;;;;;2611765;39;21057;-61
2024/04/01 06:18:58;;;;;;;0.70;0.60;;;19.80;1.00;;;;;;2611862;54;20507;-61
2024/04/01 06:21:24;;;;;;;0.70;0.50;;;19.80;1.00;;;;;;2611860;54;20957;-63
2024/04/01 06:23:49;;;;;;;0.70;0.60;;;19.80;1.00;;;;;;2611214;47;20268;-63
2024/04/01 06:26:15;;;;;;;0.60;0.50;;;19.80;1.00;;;;;;2611859;47;20254;-62
2024/04/01 06:28:41;;;;;;;0.70;0.60;;;19.80;1.00;;;;;;2612357;54;20170;-61
2024/04/01 06:31:07;;;;;;;0.70;0.60;;;19.80;1.00;;;;;;2611868;54;20170;-63
2024/04/01 06:33:35;;;;;;;0.60;0.50;;;19.80;1.00;;;;;;2611423;54;21208;-63
2024/04/01 06:36:02;;;;;;;0.70;0.50;;;19.80;1.00;;;;;;2611830;47;20211;-63
2024/04/01 06:38:29;;;;;;;0.70;0.57;;;19.80;1.00;;;;;;2612209;54;20479;-63
2024/04/01 06:40:55;;;;;;;0.63;0.50;;;19.80;1.00;;;;;;2612505;31;20887;-63
2024/04/01 06:43:21;;;;;;;0.70;0.50;;;19.80;1.00;;;;;;2611985;47;20407;-63
2024/04/01 06:45:56;;;;;;;0.67;0.50;;;19.80;1.00;;;;;;2612331;54;20428;-63
2024/04/01 06:48:23;;;;;;;0.70;0.50;;;19.80;1.00;;;;;;2611124;54;20149;-63
2024/04/01 06:50:50;;;;;;;0.70;0.50;;;19.80;1.00;;;;;;2611945;54;20431;-61
2024/04/01 06:53:17;;;;;;;0.60;0.50;;;19.80;1.00;;;;;;2612478;54;20450;-62
2024/04/01 06:55:43;;;;;;;0.70;0.50;;;19.80;1.00;;;;;;2611433;54;20420;-62
2024/04/01 06:58:10;;;;;;;0.70;0.50;;;19.80;1.00;;;;;;2612392;47;20462;-62
2024/04/01 07:00:36;;;;;;;0.70;0.60;;;19.80;1.00;;;;;;2611417;54;20454;-63
2024/04/01 07:03:02;;;;;;;0.70;0.50;;;19.80;1.00;;;;;;2610971;54;20434;-62
2024/04/01 07:05:28;;;;;;;0.70;0.50;;;19.80;1.00;;;;;;2612006;54;20427;-63
2024/04/01 07:07:53;;;;;;;0.70;0.60;;;19.80;1.00;;;;;;2612265;54;20516;-62
2024/04/01 07:10:19;;;;;;;0.70;0.60;;;19.80;1.00;;;;;;2611973;54;20468;-61
2024/04/01 07:12:45;;;;;;;0.70;0.50;;;19.80;1.00;;;;;;2611821;49;20201;-62
2024/04/01 07:15:11;;;;;;;0.60;0.50;;;19.80;1.00;;;;;;2612778;54;20166;-63
2024/04/01 07:17:38;;;;;;;0.60;0.40;;;19.80;1.00;;;;;;2611966;51;20166;-65
2024/04/01 07:20:05;;;;;;;0.70;0.50;;;19.80;1.00;;;;;;2612964;39;20769;-62
2024/04/01 07:22:31;;;;;;;0.70;0.40;;;19.80;1.00;;;;;;2612731;39;21018;-62
2024/04/01 07:24:57;;;;;;;0.60;0.50;;;19.80;1.00;;;;;;2611810;48;20431;-62
2024/04/01 07:27:23;;;;;;;0.70;0.60;;;19.80;1.00;;;;;;2612402;54;20173;-62
2024/04/01 07:29:49;;;;;;;0.67;0.40;;;19.80;1.00;;;;;;2612431;39;20851;-62
2024/04/01 07:32:14;;;;;;;0.70;0.57;;;19.80;1.00;;;;;;2612186;54;20218;-63
2024/04/01 07:34:41;;;;;;;0.70;0.60;;;19.80;1.00;;;;;;2611731;54;20463;-58
2024/04/01 07:37:07;;;;;;;0.60;0.50;;;19.80;1.00;;;;;;2612700;39;20561;-59
2024/04/01 07:39:33;;;;;;;0.70;0.50;;;19.80;1.00;;;;;;2612084;54;20424;-58
2024/04/01 07:41:59;;;;;;;0.67;0.50;;;19.80;1.00;;;;;;2612387;31;20975;-58
2024/04/01 07:44:25;;;;;;;0.70;0.50;;;19.80;1.00;;;;;;2612331;54;20415;-59
2024/04/01 07:46:50;;;;;;;0.70;0.50;;;19.80;1.00;;;;;;2612074;54;20639;-65
2024/04/01 07:49:16;;;;;;;0.60;0.50;;;19.80;1.00;;;;;;2612469;47;20178;-66
2024/04/01 07:51:42;;;;;;;0.70;0.60;;;19.80;1.00;;;;;;2612223;54;20258;-67
2024/04/01 07:54:07;;;;;;;0.60;0.50;;;19.80;1.00;;;;;;2611978;54;20178;-67
2024/04/01 07:56:33;;;;;;;0.60;0.40;;;19.80;1.00;;;;;;2612388;47;20166;-63
2024/04/01 07:58:59;;;;;;;0.70;0.50;;;19.80;1.00;;;;;;2612200;54;20193;-62
2024/04/01 08:01:25;;;;;;;0.70;0.57;;;19.80;1.00;;;;;;2611138;47;20427;-62
2024/04/01 08:03:50;;;;;;;0.60;0.50;;;19.80;1.00;;;;;;2610750;54;20166;-61
2024/04/01 08:06:16;;;;;;;0.70;0.60;;;19.80;1.00;;;;;;2612474;54;20147;-62
2024/04/01 08:08:42;;;;;;;0.67;0.50;;;19.80;1.00;;;;;;2612421;54;20170;-62
2024/04/01 08:11:08;;;;;;;0.60;0.50;;;19.80;1.00;;;;;;2611889;47;20166;-61
2024/04/01 08:13:34;;;;;;;0.70;0.60;;;19.80;1.00;;;;;;2611720;54;20232;-61
2024/04/01 08:16:01;;;;;;;0.70;0.50;;;19.80;1.00;;;;;;2611938;39;20646;-62
2024/04/01 08:18:27;;;;;;;0.67;0.50;;;19.80;1.00;;;;;;2612167;54;20423;-62
2024/04/01 08:20:54;;;;;;;0.70;0.50;;;19.80;1.00;;;;;;2612265;54;20438;-62
2024/04/01 08:23:20;;;;;;;0.70;0.60;;;19.80;1.00;;;;;;2611572;47;20426;-62
2024/04/01 08:25:45;;;;;;;0.60;0.50;;;19.80;1.00;;;;;;2612247;54;20411;-62
2024/04/01 08:28:11;;;;;;;0.70;0.50;;;19.80;1.00;;;;;;2612338;39;20872;-62
2024/04/01 08:30:37;;;;;;;0.70;0.57;;;19.80;1.00;;;;;;2612404;54;20853;-62
2024/04/01 08:33:02;;;;;;;0.70;0.60;;;19.80;1.00;;;;;;2611788;54;20187;-62
2024/04/01 08:35:28;;;;;;;0.70;0.60;;;19.80;1.00;;;;;;2612492;54;21108;-63
2024/04/01 08:37:54;;;;;;;0.60;0.50;;;19.80;1.00;;;;;;2611862;39;20559;-62
2024/04/01 08:40:20;;;;;;;0.60;0.50;;;19.80;1.00;;;;;;2611266;54;20155;-62
2024/04/01 08:42:52;;;;;;;0.60;0.40;;;19.80;1.00;;;;;;2611477;54;20158;-62
2024/04/01 08:45:18;;;;;;;0.67;0.50;;;19.80;1.00;;;;;;2611342;54;20445;-66
2024/04/01 08:47:50;;;;;;;0.63;0.50;;;19.70;1.00;;;;;;2613054;39;20781;-66
2024/04/01 08:50:22;;;;;;;0.60;0.40;;;19.80;1.00;;;;;;2611960;47;20407;-66
2024/04/01 08:53:06;;;;;;;0.63;0.50;;;19.80;1.00;;;;;;2611688;54;20965;-65
2024/04/01 08:55:32;;;;;;;0.70;0.50;;;19.80;1.00;;;;;;2611792;54;20423;-65
2024/04/01 08:57:58;;;;;;;0.60;0.40;;;19.80;1.00;;;;;;2611582;39;20933;-66
2024/04/01 09:00:24;;;;;;;0.60;0.50;;;19.80;1.00;;;;;;2611408;47;20407;-67
2024/04/01 09:02:50;;;;;;;0.70;0.50;;;19.70;1.00;;;;;;2611081;54;20976;-66
2024/04/01 09:05:15;;;;;;;0.60;0.40;;;19.70;1.00;;;;;;2610300;54;20159;-63
2024/04/01 09:07:41;;;;;;;0.70;0.50;;;19.70;1.00;;;;;;2611969;54;20163;-62
2024/04/01 09:10:07;;;;;;;0.70;0.40;;;19.70;1.00;;;;;;2611437;47;20166;-62
2024/04/01 09:12:33;;;;;;;0.60;0.50;;;19.70;1.00;;;;;;2611678;54;20278;-62
2024/04/01 09:14:59;;;;;;;0.60;0.50;;;19.80;1.00;;;;;;2611949;47;20539;-62
2024/04/01 09:17:28;;;;;;;0.70;0.50;;;19.80;1.00;;;;;;2611786;39;20798;-62
2024/04/01 09:20:01;;;;;;;0.60;0.40;;;19.70;1.00;;;;;;2611333;54;20166;-62
2024/04/01 09:22:27;;;;;;;0.60;0.50;;;19.80;1.00;;;;;;2611713;54;20407;-62
2024/04/01 09:24:53;;;;;;;0.73;0.67;;;19.70;1.00;;;;;;2611996;54;21007;-63
2024/04/01 09:27:23;;;;;;;0.60;0.50;;;19.70;1.00;;;;;;2611730;54;20155;-62
2024/04/01 09:29:48;;;;;;;0.70;0.50;;;19.70;1.00;;;;;;2610761;47;20171;-62
2024/04/01 09:32:16;;;;;;;0.60;0.50;;;19.70;1.00;;;;;;2612134;47;21254;-63
2024/04/01 09:34:41;;;;;;;0.60;0.40;;;19.70;1.00;;;;;;2612253;47;20747;-63
2024/04/01 09:37:08;;;;;;;0.60;0.40;;;19.70;1.00;;;;;;2612719;54;20378;-62
2024/04/01 09:39:34;;;;;;;0.70;0.50;;;19.80;1.00;;;;;;2611710;47;20171;-62
2024/04/01 09:42:00;;;;;;;0.60;0.40;;;19.70;1.00;;;;;;2612597;47;20459;-62
2024/04/01 09:44:26;;;;;;;0.70;0.50;;;19.70;1.00;;;;;;2612447;47;20419;-63
2024/04/01 09:46:55;;;;;;;0.67;0.50;;;19.70;1.00;;;;;;2611872;54;20171;-62
2024/04/01 09:49:24;;;;;;;0.60;0.50;;;19.80;1.00;;;;;;2612712;54;20499;-62
2024/04/01 09:51:50;;;;;;;0.60;0.40;;;19.70;1.00;;;;;;2611876;54;20408;-62
2024/04/01 09:54:16;;;;;;;0.60;0.40;;;19.70;1.00;;;;;;2612439;54;20435;-63
2024/04/01 09:57:15;;;;;;;0.70;0.50;;;19.70;1.00;;;;;;2612530;54;20487;-65
2024/04/01 10:00:00;;;;;;;0.70;0.50;;;19.70;1.00;;;;;;2612367;54;20718;-66
2024/04/01 10:02:48;;;;;;;0.70;0.40;;;19.70;1.00;;;;;;2611316;54;20438;-66
2024/04/01 10:05:35;;;;;;;0.63;0.40;;;19.70;1.00;;;;;;2612917;54;20414;-59
2024/04/01 10:08:10;;;;;;;0.70;0.50;;;19.70;1.00;;;;;;2611555;39;20946;-59
2024/04/01 10:10:48;;;;;;;0.60;0.40;;;19.70;1.00;;;;;;2612460;54;20411;-59
2024/04/01 10:13:35;;;;;;;0.60;0.40;;;19.70;1.00;;;;;;2612667;47;20435;-59
2024/04/01 10:16:28;;;;;;;0.60;0.40;;;19.70;1.00;;;;;;2612335;54;20431;-63
2024/04/01 10:19:31;;;;;;;0.63;0.47;;;19.70;1.00;;;;;;2612599;39;20792;-62
2024/04/01 10:21:57;;;;;;;0.70;0.50;;;19.70;1.00;;;;;;2612439;54;20418;-63
2024/04/01 10:24:32;;;;;;;0.60;0.50;;;19.70;1.00;;;;;;2612362;54;20527;-63
2024/04/01 10:27:28;;;;;;;0.60;0.50;;;19.70;1.00;;;;;;2612126;54;20684;-62
2024/04/01 10:30:06;;;;;;;0.60;0.50;;;19.70;1.00;;;;;;2612107;54;20446;-62
2024/04/01 10:32:53;;;;;;;0.70;0.50;;;19.70;1.00;;;;;;2612481;46;20418;-63
2024/04/01 10:35:24;;;;;;;0.70;0.50;;;19.70;1.00;;;;;;2612687;39;20836;-60
2024/04/01 10:38:06;;;;;;;0.60;0.50;;;19.70;1.00;;;;;;2611586;54;20419;-61
2024/04/01 10:41:10;;;;;;;0.70;0.50;;;19.70;1.00;;;;;;2612103;54;20443;-62
2024/04/01 10:44:13;;;;;;;0.60;0.50;;;19.70;1.00;;;;;;2611192;54;20443;-62
2024/04/01 10:47:10;;;;;;;0.70;0.60;;;19.70;1.00;;;;;;2611868;54;20419;-62
2024/04/01 10:49:49;;;;;;;0.70;0.50;;;19.70;1.00;;;;;;2612395;54;20987;-62
2024/04/01 10:52:36;;;;;;;0.70;0.50;;;19.70;1.00;;;;;;2612401;39;20834;-63
2024/04/01 10:55:01;;;;;;;0.70;0.50;;;19.70;1.00;;;;;;2612442;39;20930;-63
2024/04/01 10:57:39;;;;;;;0.70;0.50;;;19.70;1.00;;;;;;2612329;47;20432;-61
2024/04/01 11:00:26;;;;;;;0.70;0.47;;;19.70;1.00;;;;;;2611798;54;20167;-63
2024/04/01 11:03:06;;;;;;;0.70;0.50;;;19.70;1.00;;;;;;2611071;54;20572;-63
2024/04/01 11:06:03;;;;;;;0.63;0.50;;;19.80;1.00;;;;;;2612613;54;20427;-62
2024/04/01 11:08:47;;;;;;;0.60;0.50;;;19.70;1.00;;;;;;2612129;54;20400;-63
2024/04/01 11:11:43;;;;;;;0.60;0.40;;;19.80;1.00;;;;;;2612299;54;20419;-63
2024/04/01 11:14:10;;;;;;;0.70;0.70;;;19.80;1.00;;;;;;2612224;54;20415;-62
2024/04/01 11:16:40;;;;;;;0.60;0.40;;;19.80;1.00;;;;;;2612028;54;20426;-63
2024/04/01 11:19:24;;;;;;;0.70;0.50;;;19.80;1.00;;;;;;2612208;46;20542;-63
2024/04/01 11:21:57;;;;;;;0.60;0.40;;;19.80;1.00;;;;;;2612604;39;20753;-64
2024/04/01 11:24:35;;;;;;;0.70;0.50;;;19.80;1.00;;;;;;2611961;54;20411;-62
2024/04/01 11:27:27;;;;;;;0.70;0.50;;;19.80;1.00;;;;;;2613543;39;20798;-62
2024/04/01 11:30:14;;;;;;;0.60;0.47;;;19.80;1.00;;;;;;2612874;47;20984;-62
2024/04/01 11:32:42;;;;;;;0.60;0.47;;;19.80;1.00;;;;;;2612290;47;20480;-63
2024/04/01 11:35:08;;;;;;;0.60;0.50;;;19.80;1.00;;;;;;2612556;50;20499;-62
2024/04/01 11:37:38;;;;;;;0.60;0.50;;;19.80;1.00;;;;;;2612191;39;20773;-63
2024/04/01 11:40:08;;;;;;;0.87;0.57;;;19.80;1.00;;;;;;2612337;31;20922;-62
2024/04/01 11:42:39;;;;;;;0.63;0.50;;;19.80;1.00;;;;;;2611310;54;20399;-63
2024/04/01 11:45:09;;;;;;;0.70;0.50;;;19.80;1.00;;;;;;2612493;54;20415;-62
2024/04/01 11:47:39;;;;;;;0.60;0.50;;;19.80;1.00;;;;;;2612451;39;20576;-61
2024/04/01 11:50:21;;;;;;;0.60;0.40;;;19.80;1.00;;;;;;2612142;46;20445;-62
2024/04/01 11:53:01;;;;;;;0.60;0.50;;;19.80;1.00;;;;;;2612193;54;20418;-62
2024/04/01 11:55:27;;;;;;;0.60;0.50;;;19.80;1.00;;;;;;2611774;54;20546;-62
2024/04/01 11:57:54;;;;;;;0.63;0.40;;;19.80;1.00;;;;;;2612340;46;21032;-62
2024/04/01 12:00:19;;;;;;;0.60;0.50;;;19.80;1.00;;;;;;2612375;54;20428;-62
2024/04/01 12:02:55;;;;;;;0.70;0.50;;;19.80;1.00;;;;;;2610542;47;20419;-61
2024/04/01 12:05:22;;;;;;;0.70;0.50;;;19.80;1.00;;;;;;2612099;54;20730;-62
2024/04/01 12:07:52;;;;;;;1.10;1.03;;;19.80;1.00;;;;;;2611429;47;20424;-62
2024/04/01 12:10:19;;;;;;;0.60;0.50;;;19.80;1.00;;;;;;2612502;54;20470;-62
2024/04/01 12:12:49;;;;;;;0.60;0.53;;;19.80;1.00;;;;;;2612014;54;20463;-62
2024/04/01 12:15:18;;;;;;;0.70;0.60;;;19.80;1.00;;;;;;2612729;54;20415;-59
2024/04/01 12:17:45;;;;;;;0.70;0.50;;;19.90;1.00;;;;;;2612075;54;20414;-59
2024/04/01 12:20:12;;;;;;;1.10;0.97;;;19.80;1.00;;;;;;2611646;54;20408;-59
2024/04/01 12:22:40;;;;;;;0.70;0.50;;;19.80;1.00;;;;;;2611834;54;20434;-60
2024/04/01 12:25:13;;;;;;;0.70;0.60;;;19.80;1.00;;;;;;2612361;47;20542;-64
2024/04/01 12:27:39;;;;;;;0.60;0.50;;;19.80;1.00;;;;;;2612069;47;20415;-63
2024/04/01 12:30:06;;;;;;;0.70;0.60;;;19.80;1.00;;;;;;2612507;54;20949;-61
2024/04/01 12:32:42;;;;;;;0.70;0.53;;;19.80;1.00;;;;;;2612053;54;20649;-63
2024/04/01 12:35:12;;;;;;;0.60;0.50;;;19.80;1.00;;;;;;2611596;54;20419;-60
2024/04/01 12:37:42;;;;;;;0.70;0.50;;;19.90;1.00;;;;;;2612191;54;20400;-60
2024/04/01 12:40:09;;;;;;;0.60;0.50;;;19.80;1.00;;;;;;2612104;47;20411;-59
2024/04/01 12:42:37;;;;;;;0.60;0.50;;;19.80;1.00;;;;;;2612167;54;20426;-60
2024/04/01 12:45:09;;;;;;;0.60;0.50;;;19.80;1.00;;;;;;2612034;54;20968;-60
2024/04/01 12:47:36;;;;;;;0.60;0.50;;;19.80;1.00;;;;;;2612166;54;20426;-60
2024/04/01 12:50:06;;;;;;;0.70;0.50;;;19.80;1.00;;;;;;2611000;47;20407;-61
2024/04/01 12:52:40;;;;;;;0.60;0.50;;;19.80;1.00;;;;;;2611656;47;20411;-60
2024/04/01 12:55:22;;;;;;;0.60;0.50;;;19.80;1.00;;;;;;2611493;54;20395;-60
2024/04/01 12:58:08;;;;;;;0.63;0.50;;;19.80;1.00;;;;;;2611615;54;20415;-60
2024/04/01 13:00:38;;;;;;;0.70;0.60;;;19.80;1.00;;;;;;2611487;54;21040;-60
2024/04/01 13:03:30;;;;;;;1.17;1.07;;;19.80;1.00;;;;;;2610677;54;20460;-60
2024/04/01 13:06:17;;;;;;;0.70;0.50;;;19.80;1.00;;;;;;2611772;39;20832;-60
2024/04/01 13:08:49;;;;;;;0.70;0.50;;;19.80;1.00;;;;;;2612717;54;20418;-60